createdAt,value
2023-03-03T00:00:26.390Z,98907.55
2023-03-03T00:01:53.882Z,98905.85
2023-03-03T00:03:17.835Z,98901.96
2023-03-03T00:04:53.811Z,98893.42
2023-03-03T00:06:38.798Z,98888.84
2023-03-03T00:08:02.785Z,98884.58
2023-03-03T00:09:36.747Z,98885.77
2023-03-03T00:11:06.097Z,98882.54
2023-03-03T00:12:30.279Z,98880.67
2023-03-03T00:13:59.520Z,98881.36
2023-03-03T00:15:21.252Z,98881.67
2023-03-03T00:16:56.726Z,98879.86
2023-03-03T00:18:18.276Z,98873.15
2023-03-03T00:20:00.773Z,98867.06
2023-03-03T00:21:37.434Z,98864.82
2023-03-03T00:23:12.915Z,98860.54
2023-03-03T00:24:57.646Z,98864.93
2023-03-03T00:26:51.726Z,98857.44
2023-03-03T00:28:25.726Z,98863.27
2023-03-03T00:29:54.956Z,98861.48
2023-03-03T00:31:19.198Z,98860.54
2023-03-03T00:32:56.115Z,98863.25
2023-03-03T00:34:42.343Z,98860.98
2023-03-03T00:36:27.487Z,98860.80
2023-03-03T00:38:04.377Z,98859.48
2023-03-03T00:39:28.287Z,98856.58
2023-03-03T00:41:14.860Z,98853.33
2023-03-03T00:42:48.351Z,98851.38
2023-03-03T00:44:33.127Z,98850.22
2023-03-03T00:45:55.341Z,98851.34
2023-03-03T00:47:41.765Z,98849.39
2023-03-03T00:49:22.827Z,98851.77
2023-03-03T00:50:47.339Z,98847.73
2023-03-03T00:52:32.835Z,98838.86
2023-03-03T00:54:25.092Z,98836.91
2023-03-03T00:56:05.904Z,98838.20
2023-03-03T00:57:39.645Z,98842.55
2023-03-03T00:59:24.678Z,98843.38
2023-03-03T01:00:58.698Z,98838.32
2023-03-03T01:02:57.367Z,98834.98
2023-03-03T01:04:49.568Z,98833.31
2023-03-03T01:06:22.692Z,98829.36
2023-03-03T01:08:08.825Z,98832.99
2023-03-03T01:09:43.446Z,98831.46
2023-03-03T01:11:31.726Z,98834.11
2023-03-03T01:13:07.796Z,98833.84
2023-03-03T01:15:02.711Z,98840.56
2023-03-03T01:16:47.777Z,98835.46
2023-03-03T01:18:28.863Z,98836.46
2023-03-03T01:20:13.566Z,98834.02
2023-03-03T01:21:56.046Z,98828.31
2023-03-03T01:23:41.770Z,98829.55
2023-03-03T01:25:15.783Z,98824.91
2023-03-03T01:26:49.453Z,98823.33
2023-03-03T01:28:15.771Z,98825.02
2023-03-03T01:30:01.093Z,98822.77
2023-03-03T01:31:34.898Z,98823.29
2023-03-03T01:33:11.292Z,98825.52
2023-03-03T01:34:52.091Z,98821.32
2023-03-03T01:36:37.119Z,98816.48
2023-03-03T01:38:10.366Z,98799.73
2023-03-03T01:39:32.245Z,98811.45
2023-03-03T01:40:56.648Z,98816.72
2023-03-03T01:42:30.307Z,98813.36
2023-03-03T01:44:15.922Z,98809.52
2023-03-03T01:45:58.087Z,98810.42
2023-03-03T01:47:43.409Z,98810.85
2023-03-03T01:49:17.526Z,98811.34
2023-03-03T01:50:51.283Z,98809.66
2023-03-03T01:52:27.315Z,98810.46
2023-03-03T01:54:12.880Z,98813.69
2023-03-03T01:55:54.269Z,98799.13
2023-03-03T01:57:27.687Z,98811.38
2023-03-03T01:59:13.156Z,98817.80
2023-03-03T02:00:47.529Z,98817.30
2023-03-03T02:02:12.968Z,98816.29
2023-03-03T02:04:01.648Z,98817.53
2023-03-03T02:05:49.122Z,98814.63
2023-03-03T02:07:34.097Z,98810.84
2023-03-03T02:09:07.635Z,98808.13
2023-03-03T02:11:01.280Z,98809.38
2023-03-03T02:12:50.602Z,98804.41
2023-03-03T02:14:26.024Z,98806.65
2023-03-03T02:16:02.228Z,98803.67
2023-03-03T02:17:47.361Z,98805.02
2023-03-03T02:19:11.380Z,98803.30
2023-03-03T02:20:56.789Z,98797.05
2023-03-03T02:22:30.210Z,98794.04
2023-03-03T02:24:24.684Z,98787.19
2023-03-03T02:26:12.124Z,98789.61
2023-03-03T02:28:06.669Z,98795.14
2023-03-03T02:29:52.280Z,98796.58
2023-03-03T02:31:45.847Z,98798.86
2023-03-03T02:33:21.882Z,98796.93
2023-03-03T02:34:50.915Z,98798.23
2023-03-03T02:36:15.062Z,98796.54
2023-03-03T02:40:01.803Z,98796.09
2023-03-03T02:41:55.696Z,98783.67
2023-03-03T02:43:43.565Z,98787.80
2023-03-03T02:45:36.943Z,98774.71
2023-03-03T02:47:12.636Z,98790.20
2023-03-03T02:48:46.620Z,98789.27
2023-03-03T02:50:15.838Z,98787.42
2023-03-03T02:51:55.778Z,98788.66
2023-03-03T02:53:31.965Z,98789.80
2023-03-03T02:55:17.620Z,98792.70
2023-03-03T02:56:53.276Z,98793.95
2023-03-03T02:58:48.677Z,98792.75
2023-03-03T03:00:22.038Z,98791.36
2023-03-03T03:02:07.714Z,98786.75
2023-03-03T03:03:38.055Z,98789.54
2023-03-03T03:05:14.647Z,98791.85
2023-03-03T03:06:51.028Z,98791.73
2023-03-03T03:08:19.963Z,98779.70
2023-03-03T03:09:55.814Z,98789.14
2023-03-03T03:11:43.232Z,98789.98
2023-03-03T03:13:37.656Z,98788.73
2023-03-03T03:15:32.724Z,98792.05
2023-03-03T03:17:13.899Z,98791.48
2023-03-03T03:19:08.700Z,98783.77
2023-03-03T03:20:50.227Z,98782.62
2023-03-03T03:22:47.769Z,98785.48
2023-03-03T03:24:20.817Z,98789.14
2023-03-03T03:26:11.671Z,98791.64
2023-03-03T03:27:59.296Z,98788.07
2023-03-03T03:29:35.729Z,98791.22
2023-03-03T03:31:10.684Z,98789.59
2023-03-03T03:32:47.079Z,98795.67
2023-03-03T03:34:41.652Z,98796.38
2023-03-03T03:36:14.222Z,98798.64
2023-03-03T03:38:01.770Z,98798.23
2023-03-03T03:39:42.848Z,98805.25
2023-03-03T03:41:27.995Z,98802.02
2023-03-03T03:43:14.151Z,98803.20
2023-03-03T03:44:59.511Z,98804.74
2023-03-03T03:46:50.708Z,98811.67
2023-03-03T03:48:19.963Z,98804.53
2023-03-03T03:49:56.135Z,98814.93
2023-03-03T03:51:42.260Z,98811.02
2023-03-03T03:53:17.867Z,98808.81
2023-03-03T03:54:43.204Z,98809.08
2023-03-03T03:56:37.777Z,98806.06
2023-03-03T03:58:32.669Z,98802.98
2023-03-03T04:00:22.324Z,98802.37
2023-03-03T04:02:07.431Z,98799.41
2023-03-03T04:04:02.748Z,98799.61
2023-03-03T04:05:36.177Z,98793.98
2023-03-03T04:07:12.193Z,98793.88
2023-03-03T04:08:54.180Z,98793.34
2023-03-03T04:10:28.470Z,98790.04
2023-03-03T04:12:02.903Z,98789.23
2023-03-03T04:13:40.599Z,98785.13
2023-03-03T04:15:25.705Z,98777.27
2023-03-03T04:16:49.375Z,98777.12
2023-03-03T04:18:26.035Z,98771.98
2023-03-03T04:20:02.284Z,98770.27
2023-03-03T04:21:44.009Z,98763.10
2023-03-03T04:23:17.623Z,98762.13
2023-03-03T04:25:03.120Z,98754.48
2023-03-03T04:26:56.888Z,98751.54
2023-03-03T04:28:30.771Z,98745.32
2023-03-03T04:30:07.117Z,98747.81
2023-03-03T04:31:40.930Z,98749.31
2023-03-03T04:33:34.179Z,98746.48
2023-03-03T04:35:27.832Z,98746.84
2023-03-03T04:37:04.256Z,98733.48
2023-03-03T04:38:46.807Z,98747.70
2023-03-03T04:40:29.810Z,98758.91
2023-03-03T04:42:15.835Z,98760.08
2023-03-03T04:44:01.755Z,98760.55
2023-03-03T04:45:43.572Z,98765.94
2023-03-03T04:47:28.691Z,98749.63
2023-03-03T04:49:14.219Z,98756.98
2023-03-03T04:50:48.879Z,98747.41
2023-03-03T04:52:21.888Z,98745.13
2023-03-03T04:53:43.972Z,98746.23
2023-03-03T04:55:17.499Z,98746.91
2023-03-03T04:56:54.117Z,98744.88
2023-03-03T04:58:36.822Z,98743.35
2023-03-03T05:00:23.597Z,98740.69
2023-03-03T05:02:09.118Z,98741.13
2023-03-03T05:03:45.205Z,98751.77
2023-03-03T05:05:19.268Z,98756.55
2023-03-03T05:07:05.071Z,98759.96
2023-03-03T05:08:50.606Z,98760.33
2023-03-03T05:10:44.254Z,98760.02
2023-03-03T05:12:37.826Z,98758.39
2023-03-03T05:14:31.697Z,98758.66
2023-03-03T05:16:05.844Z,98764.20
2023-03-03T05:17:51.584Z,98762.02
2023-03-03T05:19:44.181Z,98759.64
2023-03-03T05:21:17.921Z,98757.98
2023-03-03T05:23:05.025Z,98759.46
2023-03-03T05:24:58.343Z,98758.36
2023-03-03T05:26:31.948Z,98761.93
2023-03-03T05:28:05.319Z,98762.76
2023-03-03T05:29:50.389Z,98768.17
2023-03-03T05:31:31.500Z,98769.88
2023-03-03T05:33:16.705Z,98772.37
2023-03-03T05:34:52.502Z,98773.33
2023-03-03T05:36:34.022Z,98773.88
2023-03-03T05:38:07.714Z,98778.02
2023-03-03T05:40:01.217Z,98775.55
2023-03-03T05:41:45.082Z,98774.06
2023-03-03T05:43:39.684Z,98761.77
2023-03-03T05:45:24.933Z,98772.64
2023-03-03T05:47:10.002Z,98774.54
2023-03-03T05:48:46.098Z,98771.21
2023-03-03T05:50:35.455Z,98750.45
2023-03-03T05:52:09.281Z,98772.61
2023-03-03T05:54:02.889Z,98778.09
2023-03-03T05:55:53.682Z,98780.08
2023-03-03T05:57:46.950Z,98786.16
2023-03-03T05:59:36.703Z,98779.21
2023-03-03T06:01:22.069Z,98790.89
2023-03-03T06:03:07.483Z,98786.89
2023-03-03T06:05:01.775Z,98783.52
2023-03-03T06:06:56.782Z,98783.51
2023-03-03T06:08:32.736Z,98767.67
2023-03-03T06:10:11.332Z,98790.64
2023-03-03T06:12:04.748Z,98792.55
2023-03-03T06:13:46.139Z,98789.95
2023-03-03T06:15:27.179Z,98780.30
2023-03-03T06:17:14.267Z,98772.71
2023-03-03T06:19:08.554Z,98773.55
2023-03-03T06:20:57.890Z,98771.22
2023-03-03T06:22:39.620Z,98767.73
2023-03-03T06:24:15.750Z,98772.31
2023-03-03T06:26:10.500Z,98774.61
2023-03-03T06:27:47.182Z,98778.64
2023-03-03T06:29:40.596Z,98787.07
2023-03-03T06:31:14.700Z,98780.97
2023-03-03T06:32:59.844Z,98767.66
2023-03-03T06:34:33.818Z,98776.08
2023-03-03T06:36:07.375Z,98774.77
2023-03-03T06:37:53.724Z,98772.63
2023-03-03T06:39:35.718Z,98773.85
2023-03-03T06:41:09.861Z,98777.28
2023-03-03T06:43:03.838Z,98775.74
2023-03-03T06:44:40.374Z,98776.53
2023-03-03T06:46:25.454Z,98771.27
2023-03-03T06:47:58.517Z,98770.92
2023-03-03T06:49:30.309Z,98771.38
2023-03-03T06:51:15.836Z,98771.20
2023-03-03T06:52:38.244Z,98764.73
2023-03-03T06:54:27.319Z,98769.00
2023-03-03T06:56:14.850Z,98772.17
2023-03-03T06:58:01.244Z,98768.88
2023-03-03T06:59:38.100Z,98765.54
2023-03-03T07:01:23.297Z,98762.70
2023-03-03T07:02:56.976Z,98772.59
2023-03-03T07:04:49.807Z,98776.86
2023-03-03T07:06:26.976Z,98769.44
2023-03-03T07:08:00.144Z,98773.21
2023-03-03T07:09:45.617Z,98774.94
2023-03-03T07:11:21.466Z,98775.33
2023-03-03T07:13:07.187Z,98771.19
2023-03-03T07:14:39.198Z,98774.75
2023-03-03T07:16:15.115Z,98767.54
2023-03-03T07:17:55.607Z,98758.07
2023-03-03T07:19:43.718Z,98748.14
2023-03-03T07:21:17.676Z,98751.17
2023-03-03T07:23:11.544Z,98757.20
2023-03-03T07:24:45.118Z,98756.81
2023-03-03T07:26:26.511Z,98753.77
2023-03-03T07:28:00.175Z,98760.35
2023-03-03T07:29:34.311Z,98766.75
2023-03-03T07:31:07.740Z,98771.83
2023-03-03T07:32:59.167Z,98773.90
2023-03-03T07:34:35.626Z,98778.12
2023-03-03T07:36:16.765Z,98783.55
2023-03-03T07:38:03.320Z,98781.63
2023-03-03T07:39:35.278Z,98780.31
2023-03-03T07:41:08.608Z,98777.48
2023-03-03T07:42:44.559Z,98779.66
2023-03-03T07:44:40.351Z,98772.50
2023-03-03T07:46:02.937Z,98778.23
2023-03-03T07:47:27.799Z,98772.05
2023-03-03T07:49:13.109Z,98769.65
2023-03-03T07:51:02.212Z,98774.68
2023-03-03T07:52:52.686Z,98779.83
2023-03-03T07:54:29.399Z,98773.91
2023-03-03T07:56:11.007Z,98771.59
2023-03-03T07:57:59.841Z,98770.23
2023-03-03T07:59:34.581Z,98776.63
2023-03-03T08:01:19.652Z,98771.64
2023-03-03T08:03:09.379Z,98770.02
2023-03-03T08:04:54.792Z,98773.57
2023-03-03T08:06:38.252Z,98771.14
2023-03-03T08:08:24.346Z,98769.80
2023-03-03T08:10:10.175Z,98766.30
2023-03-03T08:11:55.723Z,98766.45
2023-03-03T08:13:31.786Z,98768.84
2023-03-03T08:15:25.225Z,98770.52
2023-03-03T08:17:11.563Z,98775.45
2023-03-03T08:18:56.172Z,98773.66
2023-03-03T08:20:47.353Z,98767.41
2023-03-03T08:22:43.644Z,98763.23
2023-03-03T08:24:38.573Z,98751.21
2023-03-03T08:26:20.552Z,98755.75
2023-03-03T08:28:06.265Z,98763.82
2023-03-03T08:29:54.461Z,98764.95
2023-03-03T08:31:48.532Z,98759.17
2023-03-03T08:33:41.825Z,98763.73
2023-03-03T08:35:31.101Z,98767.38
2023-03-03T08:37:04.289Z,98769.52
2023-03-03T08:38:54.605Z,98769.91
2023-03-03T08:40:47.976Z,98776.56
2023-03-03T08:42:35.496Z,98779.20
2023-03-03T08:44:29.610Z,98778.19
2023-03-03T08:46:14.998Z,98774.73
2023-03-03T08:48:09.261Z,98781.23
2023-03-03T08:49:54.644Z,98779.81
2023-03-03T08:51:48.612Z,98787.17
2023-03-03T08:53:42.602Z,98794.69
2023-03-03T08:55:36.821Z,98796.62
2023-03-03T08:57:22.529Z,98796.72
2023-03-03T08:59:02.212Z,98797.88
2023-03-03T09:00:51.150Z,98796.90
2023-03-03T09:02:46.116Z,98799.86
2023-03-03T09:04:21.949Z,98796.18
2023-03-03T09:06:09.509Z,98799.82
2023-03-03T09:07:55.666Z,98803.92
2023-03-03T09:09:50.705Z,98796.63
2023-03-03T09:11:45.740Z,98798.15
2023-03-03T09:13:09.347Z,98800.20
2023-03-03T09:14:31.550Z,98804.28
2023-03-03T09:15:55.827Z,98805.84
2023-03-03T09:17:17.895Z,98797.45
2023-03-03T09:18:39.744Z,98794.56
2023-03-03T09:20:02.836Z,98794.58
2023-03-03T09:21:24.545Z,98795.48
2023-03-03T09:22:46.604Z,98794.63
2023-03-03T09:24:08.814Z,98792.70
2023-03-03T09:25:42.370Z,98788.03
2023-03-03T09:27:16.252Z,98788.48
2023-03-03T09:29:02.249Z,98788.48
2023-03-03T09:30:23.990Z,98790.75
2023-03-03T09:32:02.181Z,98785.78
2023-03-03T09:33:39.302Z,98792.15
2023-03-03T09:35:11.668Z,98790.02
2023-03-03T09:36:33.686Z,98790.59
2023-03-03T09:38:05.680Z,98792.19
2023-03-03T09:39:41.611Z,98798.19
2023-03-03T09:41:15.366Z,98794.42
2023-03-03T09:42:51.446Z,98792.70
2023-03-03T09:44:28.959Z,98787.99
2023-03-03T09:46:04.835Z,98772.97
2023-03-03T09:47:59.685Z,98787.31
2023-03-03T09:49:33.212Z,98786.14
2023-03-03T09:51:09.323Z,98788.91
2023-03-03T09:53:01.297Z,98788.67
2023-03-03T09:54:56.623Z,98791.45
2023-03-03T09:56:51.033Z,98789.79
2023-03-03T09:58:31.659Z,98796.09
2023-03-03T10:00:17.791Z,98793.91
2023-03-03T10:01:42.284Z,98789.71
2023-03-03T10:03:29.725Z,98791.89
2023-03-03T10:05:16.601Z,98792.10
2023-03-03T10:07:01.734Z,98792.59
2023-03-03T10:08:42.941Z,98794.40
2023-03-03T10:10:07.813Z,98793.52
2023-03-03T10:11:52.573Z,98791.52
2023-03-03T10:13:34.384Z,98785.71
2023-03-03T10:15:19.943Z,98786.86
2023-03-03T10:17:04.790Z,98787.41
2023-03-03T10:18:58.432Z,98788.65
2023-03-03T10:20:37.480Z,98788.63
2023-03-03T10:22:21.700Z,98785.81
2023-03-03T10:24:07.616Z,98794.15
2023-03-03T10:26:01.255Z,98793.55
2023-03-03T10:27:34.762Z,98800.05
2023-03-03T10:29:08.620Z,98797.81
2023-03-03T10:30:54.573Z,98798.10
2023-03-03T10:32:45.516Z,98801.59
2023-03-03T10:34:30.781Z,98801.77
2023-03-03T10:36:13.247Z,98795.95
2023-03-03T10:37:35.643Z,98795.67
2023-03-03T10:39:11.657Z,98772.53
2023-03-03T10:41:00.376Z,98789.38
2023-03-03T10:42:46.541Z,98789.94
2023-03-03T10:44:32.668Z,98784.87
2023-03-03T10:46:18.202Z,98789.06
2023-03-03T10:47:53.061Z,98784.58
2023-03-03T10:49:46.736Z,98779.17
2023-03-03T10:51:27.992Z,98775.32
2023-03-03T10:53:02.139Z,98772.72
2023-03-03T10:54:35.938Z,98775.61
2023-03-03T10:56:17.286Z,98768.67
2023-03-03T10:58:06.196Z,98773.47
2023-03-03T10:59:35.753Z,98766.41
2023-03-03T11:01:12.428Z,98764.17
2023-03-03T11:02:59.808Z,98758.98
2023-03-03T11:04:33.410Z,98758.92
2023-03-03T11:06:07.801Z,98753.58
2023-03-03T11:07:59.707Z,98752.41
2023-03-03T11:09:42.194Z,98751.32
2023-03-03T11:11:17.878Z,98744.56
2023-03-03T11:13:06.540Z,98749.15
2023-03-03T11:14:53.431Z,98739.10
2023-03-03T11:16:37.373Z,98748.08
2023-03-03T11:18:25.789Z,98749.73
2023-03-03T11:20:11.616Z,98748.52
2023-03-03T11:21:47.016Z,98743.08
2023-03-03T11:23:18.278Z,98746.95
2023-03-03T11:25:03.572Z,98753.02
2023-03-03T11:26:57.517Z,98752.27
2023-03-03T11:28:31.199Z,98756.77
2023-03-03T11:30:16.253Z,98756.55
2023-03-03T11:32:02.316Z,98755.88
2023-03-03T11:33:57.577Z,98742.94
2023-03-03T11:35:34.117Z,98761.18
2023-03-03T11:37:07.705Z,98758.54
2023-03-03T11:38:53.569Z,98759.84
2023-03-03T11:40:27.611Z,98760.89
2023-03-03T11:42:09.713Z,98762.98
2023-03-03T11:43:43.947Z,98761.45
2023-03-03T11:45:13.566Z,98744.44
2023-03-03T11:46:45.754Z,98763.71
2023-03-03T11:48:08.997Z,98761.70
2023-03-03T11:49:54.172Z,98766.95
2023-03-03T11:51:31.501Z,98770.38
2023-03-03T11:53:16.639Z,98769.87
2023-03-03T11:54:50.748Z,98772.00
2023-03-03T11:56:27.023Z,98771.89
2023-03-03T11:58:08.890Z,98769.83
2023-03-03T11:59:50.415Z,98769.13
2023-03-03T12:01:12.785Z,98765.52
2023-03-03T12:03:06.440Z,98761.94
2023-03-03T12:04:42.454Z,98764.14
2023-03-03T12:06:06.376Z,98761.48
2023-03-03T12:07:48.883Z,98760.88
2023-03-03T12:09:30.253Z,98751.79
2023-03-03T12:11:15.288Z,98757.62
2023-03-03T12:12:49.625Z,98752.14
2023-03-03T12:14:35.070Z,98755.04
2023-03-03T12:16:16.219Z,98755.12
2023-03-03T12:17:50.716Z,98752.99
2023-03-03T12:19:27.670Z,98749.44
2023-03-03T12:21:14.156Z,98742.68
2023-03-03T12:23:06.474Z,98742.19
2023-03-03T12:24:41.432Z,98740.45
2023-03-03T12:26:26.726Z,98741.67
2023-03-03T12:28:14.192Z,98738.68
2023-03-03T12:29:38.854Z,98741.45
2023-03-03T12:31:14.774Z,98745.86
2023-03-03T12:33:09.595Z,98725.94
2023-03-03T12:37:03.686Z,98739.45
2023-03-03T12:38:57.260Z,98738.23
2023-03-03T12:40:21.818Z,98739.96
2023-03-03T12:42:11.016Z,98742.71
2023-03-03T12:43:51.823Z,98738.91
2023-03-03T12:45:40.152Z,98739.39
2023-03-03T12:47:30.306Z,98740.23
2023-03-03T12:49:15.508Z,98742.86
2023-03-03T12:51:02.211Z,98743.39
2023-03-03T12:52:43.190Z,98746.75
2023-03-03T12:54:19.039Z,98738.80
2023-03-03T12:56:04.007Z,98742.46
2023-03-03T12:57:49.330Z,98742.14
2023-03-03T12:59:43.396Z,98739.63
2023-03-03T13:01:16.788Z,98738.31
2023-03-03T13:02:59.119Z,98736.36
2023-03-03T13:04:23.253Z,98735.97
2023-03-03T13:06:04.017Z,98729.91
2023-03-03T13:07:38.208Z,98727.34
2023-03-03T13:09:24.077Z,98730.09
2023-03-03T13:11:10.241Z,98726.20
2023-03-03T13:12:55.960Z,98728.63
2023-03-03T13:14:17.810Z,98724.83
2023-03-03T13:16:06.137Z,98725.42
2023-03-03T13:17:49.508Z,98724.08
2023-03-03T13:19:25.574Z,98725.96
2023-03-03T13:21:11.637Z,98727.45
2023-03-03T13:22:57.716Z,98731.05
2023-03-03T13:24:43.999Z,98729.78
2023-03-03T13:26:30.835Z,98729.56
2023-03-03T13:28:08.644Z,98730.33
2023-03-03T13:30:58.360Z,98734.38
2023-03-03T13:32:53.290Z,98734.23
2023-03-03T13:34:46.537Z,98730.77
2023-03-03T13:36:40.075Z,98726.69
2023-03-03T13:38:26.197Z,98721.23
2023-03-03T13:40:08.530Z,98709.20
2023-03-03T13:41:50.297Z,98726.97
2023-03-03T13:43:26.514Z,98726.38
2023-03-03T13:45:12.350Z,98726.00
2023-03-03T13:47:06.131Z,98726.23
2023-03-03T13:48:49.968Z,98724.20
2023-03-03T13:50:35.700Z,98725.61
2023-03-03T13:52:24.620Z,98724.10
2023-03-03T13:53:58.218Z,98719.90
2023-03-03T13:55:21.624Z,98720.83
2023-03-03T13:57:03.892Z,98719.45
2023-03-03T13:58:41.036Z,98723.05
2023-03-03T14:00:05.518Z,98724.48
2023-03-03T14:01:41.483Z,98722.96
2023-03-03T14:03:03.412Z,98719.98
2023-03-03T14:04:33.171Z,98723.02
2023-03-03T14:05:57.384Z,98720.46
2023-03-03T14:07:52.565Z,98722.21
2023-03-03T14:09:42.591Z,98724.14
2023-03-03T14:11:15.991Z,98722.31
2023-03-03T14:12:57.889Z,98723.79
2023-03-03T14:14:33.512Z,98723.42
2023-03-03T14:16:07.194Z,98721.69
2023-03-03T14:17:41.072Z,98720.12
2023-03-03T14:19:27.639Z,98719.48
2023-03-03T14:21:13.398Z,98722.77
2023-03-03T14:23:01.881Z,98722.44
2023-03-03T14:24:47.593Z,98719.62
2023-03-03T14:26:23.515Z,98721.81
2023-03-03T14:28:09.282Z,98721.42
2023-03-03T14:30:04.670Z,98721.64
2023-03-03T14:31:47.205Z,98720.10
2023-03-03T14:33:41.005Z,98713.63
2023-03-03T14:35:26.437Z,98705.77
2023-03-03T14:37:12.262Z,98698.64
2023-03-03T14:38:58.869Z,98700.65
2023-03-03T14:40:53.710Z,98707.44
2023-03-03T14:42:36.600Z,98707.00
2023-03-03T14:44:31.579Z,98708.01
2023-03-03T14:46:16.637Z,98716.13
2023-03-03T14:47:51.487Z,98711.83
2023-03-03T14:49:24.986Z,98713.05
2023-03-03T14:51:08.569Z,98708.47
2023-03-03T14:53:02.466Z,98707.23
2023-03-03T14:54:48.387Z,98702.76
2023-03-03T14:56:35.526Z,98711.71
2023-03-03T14:58:22.628Z,98710.27
2023-03-03T15:00:07.989Z,98708.68
2023-03-03T15:01:44.654Z,98704.63
2023-03-03T15:03:18.537Z,98706.59
2023-03-03T15:04:52.000Z,98701.73
2023-03-03T15:06:25.704Z,98703.13
2023-03-03T15:08:10.526Z,98701.55
2023-03-03T15:09:55.651Z,98689.10
2023-03-03T15:11:37.040Z,98698.71
2023-03-03T15:13:11.120Z,98693.27
2023-03-03T15:14:56.746Z,98694.58
2023-03-03T15:16:30.316Z,98692.69
2023-03-03T15:18:15.204Z,98692.59
2023-03-03T15:20:06.627Z,98693.56
2023-03-03T15:21:40.079Z,98690.13
2023-03-03T15:23:01.928Z,98687.16
2023-03-03T15:24:56.617Z,98686.55
2023-03-03T15:26:20.926Z,98681.86
2023-03-03T15:28:06.252Z,98678.67
2023-03-03T15:29:51.567Z,98674.48
2023-03-03T15:31:45.125Z,98673.03
2023-03-03T15:33:30.512Z,98674.37
2023-03-03T15:35:14.332Z,98672.09
2023-03-03T15:37:00.542Z,98673.23
2023-03-03T15:38:46.576Z,98672.19
2023-03-03T15:40:28.565Z,98676.09
2023-03-03T15:42:02.312Z,98678.38
2023-03-03T15:43:48.573Z,98678.58
2023-03-03T15:45:41.898Z,98680.81
2023-03-03T15:47:35.504Z,98680.88
2023-03-03T15:49:16.178Z,98679.48
2023-03-03T15:50:50.610Z,98679.81
2023-03-03T15:52:33.339Z,98683.07
2023-03-03T15:54:26.926Z,98677.87
2023-03-03T15:56:11.926Z,98680.36
2023-03-03T15:57:50.117Z,98681.48
2023-03-03T15:59:35.671Z,98682.16
2023-03-03T16:01:22.456Z,98679.83
2023-03-03T16:03:07.821Z,98681.10
2023-03-03T16:04:51.564Z,98676.14
2023-03-03T16:06:46.619Z,98682.57
2023-03-03T16:08:20.230Z,98680.85
2023-03-03T16:09:53.950Z,98684.87
2023-03-03T16:11:28.537Z,98689.48
2023-03-03T16:13:13.985Z,98690.79
2023-03-03T16:14:59.641Z,98691.75
2023-03-03T16:16:28.923Z,98697.55
2023-03-03T16:18:13.842Z,98695.75
2023-03-03T16:19:47.940Z,98692.13
2023-03-03T16:21:17.824Z,98695.00
2023-03-03T16:23:09.151Z,98696.48
2023-03-03T16:24:45.902Z,98692.28
2023-03-03T16:26:10.005Z,98690.14
2023-03-03T16:27:51.069Z,98691.36
2023-03-03T16:29:44.523Z,98698.89
2023-03-03T16:31:18.327Z,98700.75
2023-03-03T16:33:04.581Z,98695.83
2023-03-03T16:34:43.087Z,98694.91
2023-03-03T16:36:04.721Z,98696.50
2023-03-03T16:37:50.566Z,98699.94
2023-03-03T16:39:31.507Z,98696.17
2023-03-03T16:41:16.842Z,98692.78
2023-03-03T16:42:52.605Z,98688.01
2023-03-03T16:44:24.417Z,98687.82
2023-03-03T16:46:06.284Z,98688.11
2023-03-03T16:47:40.653Z,98687.80
2023-03-03T16:49:14.197Z,98684.98
2023-03-03T16:50:56.132Z,98685.92
2023-03-03T16:52:31.371Z,98685.24
2023-03-03T16:54:04.826Z,98690.98
2023-03-03T16:55:38.497Z,98696.02
2023-03-03T16:57:02.777Z,98692.80
2023-03-03T16:58:58.596Z,98691.32
2023-03-03T17:00:53.574Z,98689.23
2023-03-03T17:02:27.261Z,98684.02
2023-03-03T17:04:03.530Z,98684.04
2023-03-03T17:05:45.049Z,98679.75
2023-03-03T17:07:11.333Z,98674.84
2023-03-03T17:11:20.618Z,98679.13
2023-03-03T17:13:05.414Z,98685.20
2023-03-03T17:14:27.654Z,98686.20
2023-03-03T17:16:08.500Z,98686.24
2023-03-03T17:20:19.455Z,98683.48
2023-03-03T17:21:43.550Z,98681.98
2023-03-03T17:23:28.855Z,98686.80
2023-03-03T17:25:09.499Z,98692.16
2023-03-03T17:26:53.988Z,98688.36
2023-03-03T17:28:29.172Z,98688.58
2023-03-03T17:30:05.760Z,98683.63
2023-03-03T17:31:39.267Z,98698.88
2023-03-03T17:33:24.595Z,98681.06
2023-03-03T17:35:09.408Z,98699.45
2023-03-03T17:36:57.489Z,98704.38
2023-03-03T17:38:45.924Z,98695.41
2023-03-03T17:40:39.578Z,98697.17
2023-03-03T17:42:24.724Z,98700.40
2023-03-03T17:44:10.590Z,98696.80
2023-03-03T17:45:59.264Z,98695.19
2023-03-03T17:47:41.070Z,98699.10
2023-03-03T17:49:21.704Z,98698.79
2023-03-03T17:51:05.276Z,98700.84
2023-03-03T17:52:31.575Z,98692.64
2023-03-03T17:54:07.567Z,98695.11
2023-03-03T17:55:36.656Z,98695.52
2023-03-03T17:57:03.112Z,98700.88
2023-03-03T17:58:48.864Z,98695.55
2023-03-03T18:00:29.151Z,98700.56
2023-03-03T18:01:58.510Z,98696.73
2023-03-03T18:03:34.251Z,98700.33
2023-03-03T18:05:08.042Z,98699.60
2023-03-03T18:06:44.274Z,98701.50
2023-03-03T18:08:30.498Z,98686.95
2023-03-03T18:10:00.307Z,98694.78
2023-03-03T18:11:22.128Z,98695.20
2023-03-03T18:13:03.081Z,98692.81
2023-03-03T18:14:37.020Z,98693.48
2023-03-03T18:16:12.398Z,98691.46
2023-03-03T18:18:07.628Z,98685.05
2023-03-03T18:19:58.569Z,98683.22
2023-03-03T18:21:50.573Z,98676.36
2023-03-03T18:23:34.349Z,98674.10
2023-03-03T18:25:07.637Z,98678.40
2023-03-03T18:26:56.443Z,98676.66
2023-03-03T18:28:18.686Z,98669.04
2023-03-03T18:30:03.791Z,98676.23
2023-03-03T18:31:54.272Z,98672.36
2023-03-03T18:33:26.439Z,98670.56
2023-03-03T18:35:03.302Z,98667.02
2023-03-03T18:36:53.612Z,98670.19
2023-03-03T18:38:34.864Z,98669.46
2023-03-03T18:40:08.596Z,98670.07
2023-03-03T18:41:55.201Z,98668.94
2023-03-03T18:43:28.675Z,98662.60
2023-03-03T18:44:55.067Z,98655.21
2023-03-03T18:46:19.185Z,98646.80
2023-03-03T18:48:04.077Z,98660.60
2023-03-03T18:49:25.976Z,98660.52
2023-03-03T18:51:01.634Z,98662.10
2023-03-03T18:52:43.564Z,98658.41
2023-03-03T18:54:17.238Z,98659.61
2023-03-03T18:55:46.958Z,98657.61
2023-03-03T18:57:11.171Z,98658.91
2023-03-03T18:58:44.983Z,98660.96
2023-03-03T19:00:26.657Z,98657.30
2023-03-03T19:02:04.418Z,98658.15
2023-03-03T19:03:45.504Z,98659.57
2023-03-03T19:05:07.469Z,98661.09
2023-03-03T19:06:43.663Z,98665.27
2023-03-03T19:08:28.900Z,98663.85
2023-03-03T19:10:14.469Z,98661.00
2023-03-03T19:11:56.852Z,98660.67
2023-03-03T19:13:33.581Z,98652.31
2023-03-03T19:15:06.760Z,98652.41
2023-03-03T19:16:52.446Z,98652.36
2023-03-03T19:18:21.370Z,98650.38
2023-03-03T19:20:06.421Z,98652.25
2023-03-03T19:21:53.133Z,98650.48
2023-03-03T19:23:22.194Z,98647.72
2023-03-03T19:25:06.296Z,98632.24
2023-03-03T19:26:52.040Z,98645.14
2023-03-03T19:28:46.654Z,98638.52
2023-03-03T19:30:23.890Z,98639.38
2023-03-03T19:31:59.831Z,98639.40
2023-03-03T19:33:57.105Z,98629.08
2023-03-03T19:35:40.690Z,98632.14
2023-03-03T19:37:26.417Z,98626.51
2023-03-03T19:39:00.208Z,98623.63
2023-03-03T19:40:58.218Z,98620.94
2023-03-03T19:42:34.225Z,98614.96
2023-03-03T19:44:19.296Z,98610.96
2023-03-03T19:46:04.457Z,98606.54
2023-03-03T19:47:38.177Z,98609.61
2023-03-03T19:49:11.742Z,98608.15
2023-03-03T19:50:54.529Z,98599.78
2023-03-03T19:52:38.040Z,98596.75
2023-03-03T19:54:23.320Z,98598.46